Dades meteomassalio
Diari Summary for Juny 26, 2017 Units:  English    Metric   Both
« Previous Day
Next Day »
Diari Semanal Mensual Anual Personalitzat
  Maxima: Minima: Mijana:
Temperatura: TemperatureC °F 19.6 °F 25.2 °F
Rosada: DewpointC °F 14.8 °F 17.7 °F
Humitat: Humidity % 41 % 66 %
Velocitat del vent: WindSpeedKMH mph 0.0 mph 7.1 mph
Racha vent: WindSpeedGustKMH mph - -
Vent:- - SSE
Pressio: PressurehPa in 1007.7 in -
Pluja: 4.3 in    
Historical Graphs
 
 
Tabular Data for Juny 26, 2017
Time Temperature Dew Point Pressure Wind Wind Speed Wind Gust Humidity Rainfall Rate (Hourly) solar Conditions
TemperatureC °F DewpointC °F PressurehPa in Calm     Humidity % HourlyPrecipMM in SolarRadiationWatts/m^2 W/m2 Conditions
00:03 24.3 °F 15.3 °F 1012.1 in SSE 8.0 mph 8.0 mph 57 % 0.0 in 0.0 W/m2 CLR
00:08 24.2 °F 15.2 °F 1012.1 in SE 18.5 mph 18.5 mph 57 % 0.0 in 0.0 W/m2 CLR
00:13 24.3 °F 15.2 °F 1012.1 in SE 18.5 mph 18.5 mph 57 % 0.0 in 0.0 W/m2 CLR
00:18 24.3 °F 15.3 °F 1012.4 in SSE 5.6 mph 5.6 mph 57 % 0.0 in 0.0 W/m2 CLR
00:23 24.3 °F 15.5 °F 1012.4 in SSE 9.7 mph 9.7 mph 58 % 0.0 in 0.0 W/m2 CLR
00:28 24.2 °F 15.9 °F 1012.4 in SSE 18.5 mph 18.5 mph 60 % 0.0 in 0.0 W/m2 CLR
00:33 24.1 °F 16.1 °F 1012.4 in SSE 16.7 mph 16.7 mph 61 % 0.0 in 0.0 W/m2 CLR
00:38 24.1 °F 16.1 °F 1012.8 in Calm     61 % 0.0 in 0.0 W/m2 CLR
00:43 24.0 °F 16.0 °F 1012.4 in Calm     61 % 0.0 in 0.0 W/m2 CLR
00:48 23.9 °F 15.9 °F 1012.8 in Calm     61 % 0.0 in 0.0 W/m2 CLR
00:53 23.8 °F 15.8 °F 1012.8 in NW 5.6 mph 5.6 mph 61 % 0.0 in 0.0 W/m2 CLR
00:58 23.6 °F 15.9 °F 1012.8 in WSW 5.6 mph 5.6 mph 62 % 0.0 in 0.0 W/m2 CLR
01:03 23.7 °F 15.7 °F 1013.1 in SSW 9.7 mph 9.7 mph 61 % 0.0 in 0.0 W/m2 CLR
01:08 23.7 °F 15.8 °F 1012.8 in SW 13.0 mph 13.0 mph 61 % 0.0 in 0.0 W/m2 CLR
01:13 23.7 °F 15.4 °F 1013.1 in NW 13.0 mph 13.0 mph 60 % 0.0 in 0.0 W/m2 CLR
01:18 23.6 °F 14.8 °F 1013.1 in West 11.1 mph 11.1 mph 58 % 0.0 in 0.0 W/m2 CLR
01:23 23.8 °F 17.3 °F 1013.1 in West 14.8 mph 14.8 mph 67 % 0.0 in 0.0 W/m2 CLR
01:28 23.7 °F 18.6 °F 1013.1 in West 7.4 mph 7.4 mph 73 % 0.0 in 0.0 W/m2 CLR
01:33 23.5 °F 18.6 °F 1013.1 in West 7.4 mph 7.4 mph 74 % 0.0 in 0.0 W/m2 CLR
01:38 23.3 °F 18.7 °F 1013.1 in Calm     75 % 0.0 in 0.0 W/m2 CLR
01:43 23.2 °F 18.8 °F 1012.8 in Calm     76 % 0.0 in 0.0 W/m2 CLR
01:48 23.1 °F 18.8 °F 1012.8 in Calm     77 % 0.0 in 0.0 W/m2 CLR
01:53 22.9 °F 18.5 °F 1012.8 in Calm     76 % 0.0 in 0.0 W/m2 CLR
01:54 23.0 °F 18.6 °F 1012.8 in Calm     76 % 0.0 in 0.0 W/m2 CLR
01:59 22.8 °F 18.4 °F 1012.8 in Calm     76 % 0.0 in 0.0 W/m2 CLR
02:04 22.7 °F 18.1 °F 1012.4 in Calm     75 % 0.0 in 0.0 W/m2 CLR
02:09 22.6 °F 17.9 °F 1012.4 in Calm     75 % 0.0 in 0.0 W/m2 CLR
02:14 22.4 °F 18.0 °F 1012.4 in Calm     76 % 0.0 in 0.0 W/m2 CLR
02:19 22.3 °F 17.9 °F 1012.1 in Calm     76 % 0.0 in 0.0 W/m2 CLR
02:24 22.2 °F 17.9 °F 1012.1 in Calm     77 % 0.0 in 0.0 W/m2 CLR
02:29 22.1 °F 18.1 °F 1012.1 in Calm     78 % 0.0 in 0.0 W/m2 CLR
02:34 22.0 °F 17.8 °F 1012.1 in Calm     77 % 0.0 in 0.0 W/m2 CLR
02:39 22.0 °F 18.2 °F 1011.7 in Calm     79 % 0.0 in 0.0 W/m2 CLR
02:44 21.8 °F 17.6 °F 1011.7 in Calm     77 % 0.0 in 0.0 W/m2 CLR
02:49 21.7 °F 18.1 °F 1011.4 in Calm     80 % 0.0 in 0.0 W/m2 CLR
02:54 21.6 °F 17.8 °F 1011.4 in Calm     79 % 0.0 in 0.0 W/m2 CLR
02:59 21.4 °F 17.7 °F 1011.1 in Calm     79 % 0.0 in 0.0 W/m2 CLR
03:04 21.4 °F 18.0 °F 1011.1 in Calm     81 % 0.0 in 0.0 W/m2 CLR
03:05 21.4 °F 18.0 °F 1011.1 in Calm     81 % 0.0 in 0.0 W/m2 CLR
03:10 21.2 °F 17.4 °F 1011.1 in Calm     79 % 0.0 in 0.0 W/m2 CLR
03:15 21.2 °F 17.8 °F 1011.1 in Calm     81 % 0.0 in 0.0 W/m2 CLR
03:20 21.0 °F 17.8 °F 1011.1 in Calm     82 % 0.0 in 0.0 W/m2 CLR
03:26 20.9 °F 17.7 °F 1011.1 in Calm     82 % 0.0 in 0.0 W/m2 CLR
03:31 20.8 °F 17.8 °F 1011.1 in Calm     83 % 0.0 in 0.0 W/m2 CLR
03:36 20.7 °F 17.9 °F 1011.1 in Calm     84 % 0.0 in 0.0 W/m2 CLR
03:41 20.9 °F 18.4 °F 1011.7 in West 9.7 mph 9.7 mph 86 % 0.0 in 0.0 W/m2 CLR
03:46 21.1 °F 18.6 °F 1012.8 in West 20.4 mph 20.4 mph 86 % 0.0 in 0.0 W/m2 CLR
03:51 21.2 °F 18.6 °F 1011.7 in NW 8.0 mph 8.0 mph 85 % 0.0 in 0.0 W/m2 CLR
03:56 21.2 °F 18.6 °F 1009.7 in SE 18.5 mph 18.5 mph 85 % 0.3 in 0.0 W/m2 RA
04:01 21.1 °F 18.6 °F 1010.4 in Calm     86 % 0.3 in 0.0 W/m2
04:06 20.9 °F 18.7 °F 1011.4 in WNW 14.8 mph 14.8 mph 87 % 0.3 in 0.0 W/m2 CLR
04:11 20.9 °F 18.7 °F 1011.4 in WNW 11.1 mph 11.1 mph 87 % 0.3 in 0.0 W/m2 CLR
04:16 20.9 °F 18.7 °F 1011.7 in Calm     87 % 0.3 in 0.0 W/m2 CLR
04:21 20.9 °F 18.9 °F 1012.4 in WSW 8.0 mph 8.0 mph 88 % 0.3 in 0.0 W/m2 CLR
04:26 21.0 °F 18.9 °F 1012.8 in West 18.5 mph 18.5 mph 88 % 0.3 in 0.0 W/m2 CLR
04:31 21.1 °F 18.8 °F 1013.1 in West 22.2 mph 22.2 mph 87 % 0.3 in 0.0 W/m2 CLR
04:36 21.0 °F 18.8 °F 1012.8 in WNW 20.9 mph 20.9 mph 87 % 0.3 in 0.0 W/m2 CLR
04:41 20.9 °F 18.7 °F 1012.4 in WNW 11.1 mph 11.1 mph 87 % 0.3 in 0.0 W/m2 CLR
04:46 20.8 °F 18.6 °F 1012.4 in WNW 9.3 mph 9.3 mph 87 % 0.3 in 0.0 W/m2 CLR
04:51 20.8 °F 18.3 °F 1011.7 in Calm     86 % 0.3 in 0.0 W/m2 CLR
04:56 20.7 °F 18.5 °F 1011.1 in Calm     87 % 0.0 in 0.0 W/m2 CLR
05:01 20.7 °F 18.5 °F 1010.7 in Calm     87 % 0.0 in 0.0 W/m2 CLR
05:06 20.7 °F 18.5 °F 1011.1 in Calm     87 % 0.0 in 0.0 W/m2 CLR
05:11 20.7 °F 18.5 °F 1011.4 in Calm     87 % 0.0 in 0.0 W/m2 CLR
05:16 20.7 °F 18.4 °F 1011.1 in Calm     87 % 0.0 in 0.0 W/m2 CLR
05:21 20.6 °F 18.3 °F 1011.1 in Calm     87 % 0.0 in 0.0 W/m2 CLR
05:26 20.4 °F 18.2 °F 1011.1 in Calm     87 % 0.0 in 0.0 W/m2 CLR
05:31 20.3 °F 18.2 °F 1011.1 in Calm     88 % 0.0 in 0.0 W/m2 CLR
05:36 20.2 °F 18.1 °F 1011.4 in Calm     88 % 0.0 in 0.0 W/m2 CLR
05:41 20.1 °F 18.2 °F 1010.7 in Calm     89 % 0.0 in 0.0 W/m2 CLR
05:46 20.1 °F 18.2 °F 1010.4 in Calm     89 % 0.0 in 0.0 W/m2 CLR
05:51 20.1 °F 18.2 °F 1010.7 in Calm     89 % 0.0 in 0.0 W/m2 CLR
05:56 20.0 °F 18.1 °F 1010.7 in Calm     89 % 0.0 in 0.0 W/m2 CLR
06:01 20.0 °F 18.1 °F 1011.1 in Calm     89 % 0.0 in 0.0 W/m2 CLR
06:06 20.0 °F 18.3 °F 1011.7 in NW 12.9 mph 12.9 mph 90 % 0.0 in 0.0 W/m2 CLR
06:11 20.0 °F 18.1 °F 1011.4 in NW 7.4 mph   89 % 0.0 in 0.0 W/m2 CLR
06:16 20.1 °F 18.2 °F 1011.1 in Calm     89 % 0.0 in 0.0 W/m2 CLR
06:21 20.1 °F 18.2 °F 1011.1 in ESE 8.0 mph 8.0 mph 89 % 0.0 in 0.0 W/m2 OVC
06:26 20.1 °F 18.2 °F 1010.4 in East 13.0 mph 13.0 mph 89 % 0.5 in 0.0 W/m2 RA
06:31 20.0 °F 18.1 °F 1010.4 in ENE 5.6 mph 5.6 mph 89 % 0.8 in 0.0 W/m2 RA
06:36 20.0 °F 18.3 °F 1010.0 in ESE 5.6 mph   90 % 0.8 in 0.0 W/m2
06:41 20.1 °F 18.4 °F 1010.0 in ESE 5.6 mph 5.6 mph 90 % 1.0 in 0.0 W/m2 RA
06:46 20.0 °F 18.3 °F 1010.0 in NNE 1.9 mph 1.9 mph 90 % 1.3 in 0.0 W/m2 RA
06:51 20.1 °F 18.6 °F 1010.7 in NNW 17.7 mph 17.7 mph 91 % 1.5 in 0.0 W/m2 RA
06:56 19.9 °F 18.4 °F 1010.7 in NW 11.1 mph 11.1 mph 91 % 1.5 in 0.0 W/m2 CLR
07:01 19.8 °F 18.3 °F 1011.1 in NNW 9.3 mph 9.3 mph 91 % 1.8 in 0.0 W/m2 RA
07:06 19.7 °F 18.2 °F 1010.7 in Calm     91 % 1.8 in 0.0 W/m2 CLR
07:11 19.7 °F 18.2 °F 1010.7 in Calm     91 % 1.8 in 5.0 W/m2 OVC
07:16 19.7 °F 18.2 °F 1010.7 in NNW 4.8 mph 4.8 mph 91 % 1.8 in 9.0 W/m2 BKN
07:21 19.7 °F 18.2 °F 1011.4 in WNW 18.5 mph 18.5 mph 91 % 2.0 in 5.0 W/m2 RA
07:26 19.7 °F 18.2 °F 1012.1 in WNW 22.5 mph 22.5 mph 91 % 1.5 in 5.0 W/m2
07:31 19.8 °F 18.3 °F 1010.7 in Calm     91 % 2.5 in 5.0 W/m2 RA
07:36 19.8 °F 18.3 °F 1010.7 in Calm     91 % 3.0 in 5.0 W/m2 RA
07:41 19.8 °F 18.3 °F 1010.7 in Calm     91 % 3.0 in 9.0 W/m2 RA
07:46 19.7 °F 18.2 °F 1010.7 in Calm     91 % 3.0 in 12.0 W/m2 RA
07:51 19.7 °F 18.2 °F 1011.1 in Calm     91 % 2.8 in 7.0 W/m2 BKN
07:56 19.7 °F 18.2 °F 1010.7 in Calm     91 % 2.8 in 9.0 W/m2 BKN
08:01 19.7 °F 18.3 °F 1011.1 in Calm     92 % 2.3 in 32.0 W/m2 BKN
08:06 19.6 °F 18.3 °F 1011.1 in Calm     92 % 2.3 in 62.0 W/m2 BKN
08:11 19.6 °F 18.3 °F 1010.7 in Calm     92 % 2.3 in 149.0 W/m2 SCT
08:16 19.6 °F 18.3 °F 1010.7 in Calm     92 % 2.3 in 127.0 W/m2 CLR
08:21 19.7 °F 18.3 °F 1010.7 in Calm     92 % 2.3 in 151.0 W/m2 CLR
08:26 19.7 °F 18.3 °F 1011.1 in Calm     92 % 2.3 in 91.0 W/m2 CLR
08:31 19.7 °F 18.3 °F 1011.1 in Calm     92 % 0.8 in 81.0 W/m2 CLR
08:36 19.6 °F 18.3 °F 1011.1 in Calm     92 % 0.5 in 67.0 W/m2 CLR
08:41 19.7 °F 18.3 °F 1011.1 in Calm     92 % 0.3 in 67.0 W/m2 FEW
08:46 19.6 °F 18.1 °F 1010.7 in Calm     91 % 0.0 in 105.0 W/m2 SCT
08:51 19.7 °F 18.2 °F 1010.7 in Calm     91 % 0.0 in 169.0 W/m2 FEW
08:56 19.7 °F 18.2 °F 1010.7 in Calm     91 % 0.0 in 267.0 W/m2 CLR
09:02 19.9 °F 18.4 °F 1010.7 in Calm     91 % 0.0 in 251.0 W/m2 CLR
09:07 20.0 °F 18.5 °F 1010.7 in Calm     91 % 0.0 in 207.0 W/m2 CLR
09:12 20.2 °F 18.7 °F 1010.7 in Calm     91 % 0.0 in 213.0 W/m2 CLR
09:17 20.2 °F 18.6 °F 1010.7 in Calm     90 % 0.0 in 237.0 W/m2 CLR
09:22 20.4 °F 18.7 °F 1010.7 in Calm     90 % 0.0 in 199.0 W/m2 CLR
09:27 20.7 °F 19.2 °F 1010.7 in Calm     91 % 0.0 in 221.0 W/m2 CLR
09:32 20.9 °F 19.2 °F 1010.7 in Calm     90 % 0.0 in 323.0 W/m2 CLR
09:37 20.9 °F 19.2 °F 1010.7 in Calm     90 % 0.0 in 297.0 W/m2 CLR
09:42 21.2 °F 19.4 °F 1010.7 in Calm     90 % 0.0 in 352.0 W/m2 CLR
09:47 21.2 °F 19.3 °F 1010.7 in Calm     89 % 0.0 in 301.0 W/m2 CLR
09:52 21.3 °F 19.4 °F 1010.4 in Calm     89 % 0.0 in 429.0 W/m2 CLR
09:57 21.3 °F 19.2 °F 1010.4 in Calm     88 % 0.0 in 387.0 W/m2 CLR
10:02 21.6 °F 19.7 °F 1010.4 in Calm     89 % 0.0 in 599.0 W/m2 CLR
10:07 21.7 °F 19.7 °F 1010.4 in Calm     88 % 0.0 in 649.0 W/m2 CLR
10:12 21.8 °F 19.8 °F 1010.4 in Calm     88 % 0.0 in 752.0 W/m2 CLR
10:17 21.9 °F 19.7 °F 1010.4 in Calm     87 % 0.0 in 765.0 W/m2 CLR
10:22 22.2 °F 19.9 °F 1010.4 in Calm     87 % 0.0 in 782.0 W/m2 CLR
10:27 22.4 °F 20.1 °F 1010.4 in Calm     87 % 0.0 in 782.0 W/m2 CLR
10:32 22.6 °F 20.1 °F 1010.4 in Calm     86 % 0.0 in 279.0 W/m2 CLR
10:37 22.6 °F 19.7 °F 1010.4 in Calm     84 % 0.0 in 204.0 W/m2 CLR
10:42 22.6 °F 19.7 °F 1010.4 in Calm     84 % 0.0 in 262.0 W/m2 CLR
10:47 22.6 °F 19.6 °F 1010.4 in Calm     83 % 0.0 in 192.0 W/m2 CLR
10:52 22.7 °F 19.6 °F 1010.4 in Calm     83 % 0.0 in 278.0 W/m2 CLR
10:57 22.8 °F 19.7 °F 1010.0 in Calm     83 % 0.0 in 591.0 W/m2 CLR
11:02 23.1 °F 19.9 °F 1010.0 in Calm     82 % 0.0 in 380.0 W/m2 CLR
11:07 23.3 °F 20.1 °F 1010.0 in Calm     82 % 0.0 in 817.0 W/m2 CLR
11:12 23.7 °F 20.4 °F 1010.0 in Calm     82 % 0.0 in 784.0 W/m2 CLR
11:17 24.0 °F 20.1 °F 1010.0 in Calm     79 % 0.0 in 788.0 W/m2 CLR
11:22 24.3 °F 20.4 °F 1010.0 in Calm     79 % 0.0 in 749.0 W/m2 CLR
11:27 24.7 °F 20.4 °F 1010.0 in Calm     77 % 0.0 in 726.0 W/m2 CLR
11:32 25.2 °F 20.8 °F 1010.0 in Calm     77 % 0.0 in 777.0 W/m2 CLR
11:37 25.7 °F 21.1 °F 1010.0 in Calm     76 % 0.0 in 775.0 W/m2 CLR
11:42 26.1 °F 20.6 °F 1010.0 in North 5.6 mph 5.6 mph 72 % 0.0 in 784.0 W/m2 CLR
11:48 26.1 °F 20.4 °F 1010.0 in NE 5.6 mph   71 % 0.0 in 795.0 W/m2 CLR
11:53 26.3 °F 20.4 °F 1010.0 in Calm   0.3 mph 70 % 0.0 in 796.0 W/m2 CLR
11:58 26.4 °F 20.2 °F 1009.7 in Calm   0.2 mph 69 % 0.0 in 807.0 W/m2 CLR
12:03 26.4 °F 20.0 °F 1009.7 in Calm     68 % 0.0 in 810.0 W/m2 CLR
12:08 26.6 °F 19.7 °F 1009.7 in ENE 7.4 mph 7.4 mph 66 % 0.0 in 821.0 W/m2 CLR
12:13 26.7 °F 19.1 °F 1009.7 in ENE 8.0 mph 8.0 mph 63 % 0.0 in 830.0 W/m2 CLR
12:18 26.9 °F 18.8 °F 1009.7 in ENE 9.3 mph 9.3 mph 61 % 0.0 in 835.0 W/m2 CLR
12:23 27.3 °F 18.6 °F 1009.7 in ESE 9.7 mph 9.7 mph 59 % 0.0 in 846.0 W/m2 CLR
12:28 27.6 °F 18.6 °F 1009.7 in Calm     58 % 0.0 in 853.0 W/m2 CLR
12:33 27.8 °F 18.2 °F 1009.7 in ENE 14.5 mph 14.5 mph 56 % 0.0 in 861.0 W/m2 CLR
12:38 28.1 °F 19.3 °F 1009.4 in NNE 13.0 mph 13.0 mph 59 % 0.0 in 867.0 W/m2 CLR
12:43 28.1 °F 19.1 °F 1009.4 in NNE 11.1 mph 11.1 mph 58 % 0.0 in 868.0 W/m2 CLR
12:48 28.3 °F 18.4 °F 1009.4 in NNE 11.1 mph 11.1 mph 55 % 0.0 in 879.0 W/m2 CLR
12:53 28.4 °F 18.2 °F 1009.4 in NE 16.7 mph 16.7 mph 54 % 0.0 in 884.0 W/m2 CLR
12:58 28.6 °F 18.3 °F 1009.4 in ENE 9.7 mph 9.7 mph 54 % 0.0 in 888.0 W/m2 CLR
13:03 28.7 °F 17.6 °F 1009.4 in NNE 9.7 mph 9.7 mph 51 % 0.0 in 893.0 W/m2 CLR
13:08 28.9 °F 18.4 °F 1009.4 in NE 8.0 mph 8.0 mph 53 % 0.0 in 898.0 W/m2 CLR
13:13 29.3 °F 17.8 °F 1009.4 in NE 18.5 mph 18.5 mph 50 % 0.0 in 904.0 W/m2 CLR
13:18 29.2 °F 18.1 °F 1009.0 in NE 13.0 mph 13.0 mph 51 % 0.0 in 909.0 W/m2 CLR
13:23 29.2 °F 17.7 °F 1009.0 in North 14.8 mph 14.8 mph 50 % 0.0 in 911.0 W/m2 CLR
13:28 29.3 °F 17.8 °F 1009.0 in ENE 16.1 mph 16.1 mph 50 % 0.0 in 907.0 W/m2 CLR
13:33 29.6 °F 18.1 °F 1009.0 in NE 16.1 mph 16.1 mph 50 % 0.0 in 909.0 W/m2 CLR
13:38 29.8 °F 17.9 °F 1009.0 in ENE 16.7 mph 16.7 mph 49 % 0.0 in 914.0 W/m2 CLR
13:43 29.9 °F 17.3 °F 1009.0 in NNE 13.0 mph 13.0 mph 47 % 0.0 in 919.0 W/m2 CLR
13:48 29.8 °F 17.3 °F 1009.0 in NNE 16.7 mph 16.7 mph 47 % 0.0 in 923.0 W/m2 CLR
13:53 29.9 °F 17.4 °F 1008.7 in North 20.9 mph 20.9 mph 47 % 0.0 in 928.0 W/m2 CLR
13:58 29.8 °F 17.3 °F 1008.7 in NNE 14.8 mph 14.8 mph 47 % 0.0 in 939.0 W/m2 CLR
14:03 29.9 °F 17.0 °F 1009.0 in ENE 13.0 mph 13.0 mph 46 % 0.0 in 1000.0 W/m2 CLR
14:08 30.2 °F 17.3 °F 1009.0 in North 20.4 mph 20.4 mph 46 % 0.0 in 1044.0 W/m2 CLR
14:13 30.2 °F 16.9 °F 1008.7 in NNE 20.4 mph 20.4 mph 45 % 0.0 in 1044.0 W/m2 CLR
14:19 29.9 °F 16.7 °F 1008.7 in North 18.5 mph 18.5 mph 45 % 0.0 in 350.0 W/m2 CLR
14:24 29.8 °F 16.9 °F 1008.7 in NE 18.5 mph 18.5 mph 46 % 0.0 in 355.0 W/m2 CLR
14:29 29.8 °F 17.3 °F 1009.0 in NE 22.2 mph 22.2 mph 47 % 0.0 in 404.0 W/m2 CLR
14:34 29.6 °F 16.8 °F 1009.0 in North 24.1 mph 24.1 mph 46 % 0.0 in 295.0 W/m2 CLR
14:39 29.3 °F 16.8 °F 1008.7 in NE 13.0 mph 13.0 mph 47 % 0.0 in 297.0 W/m2 CLR
14:44 29.3 °F 17.5 °F 1008.7 in NE 16.7 mph 16.7 mph 49 % 0.0 in 316.0 W/m2 CLR
14:49 29.5 °F 17.3 °F 1008.7 in North 16.7 mph 16.7 mph 48 % 0.0 in 960.0 W/m2 CLR
14:54 29.8 °F 17.9 °F 1008.7 in NNE 11.3 mph 11.3 mph 49 % 0.0 in 912.0 W/m2 CLR
14:59 30.1 °F 17.6 °F 1008.7 in NE 12.9 mph 12.9 mph 47 % 0.0 in 905.0 W/m2 CLR
15:04 30.3 °F 17.4 °F 1008.7 in NE 14.8 mph 14.8 mph 46 % 0.0 in 914.0 W/m2 CLR
15:09 30.4 °F 16.8 °F 1008.7 in NE 14.8 mph 14.8 mph 44 % 0.0 in 909.0 W/m2 CLR
15:14 30.3 °F 17.1 °F 1008.7 in East 11.3 mph 11.3 mph 45 % 0.0 in 902.0 W/m2 CLR
15:19 30.4 °F 17.5 °F 1008.4 in NNW 7.4 mph 7.4 mph 46 % 0.0 in 891.0 W/m2 CLR
15:24 30.8 °F 17.1 °F 1008.4 in North 18.5 mph 18.5 mph 44 % 0.0 in 888.0 W/m2 CLR
15:29 30.9 °F 17.6 °F 1008.4 in North 16.7 mph 16.7 mph 45 % 0.0 in 935.0 W/m2 CLR
15:34 31.1 °F 17.4 °F 1008.4 in North 18.5 mph 18.5 mph 44 % 0.0 in 861.0 W/m2 CLR
15:39 30.8 °F 16.8 °F 1008.4 in North 13.0 mph 13.0 mph 43 % 0.0 in 854.0 W/m2 CLR
15:44 30.7 °F 17.0 °F 1008.4 in North 14.8 mph 14.8 mph 44 % 0.0 in 837.0 W/m2 CLR
15:49 30.6 °F 16.9 °F 1008.4 in ENE 20.4 mph 20.4 mph 44 % 0.0 in 835.0 W/m2 CLR
15:54 30.6 °F 16.9 °F 1008.4 in NNW 11.1 mph 11.1 mph 44 % 0.0 in 844.0 W/m2 CLR
15:59 30.5 °F 17.2 °F 1008.4 in North 18.5 mph 18.5 mph 45 % 0.0 in 849.0 W/m2 CLR
16:04 30.3 °F 17.0 °F 1008.4 in North 20.4 mph 20.4 mph 45 % 0.0 in 346.0 W/m2 CLR
16:09 30.1 °F 16.8 °F 1008.4 in NNW 11.1 mph 11.1 mph 45 % 0.0 in 949.0 W/m2 CLR
16:14 30.3 °F 17.4 °F 1008.4 in NNE 18.5 mph 18.5 mph 46 % 0.0 in 826.0 W/m2 CLR
16:19 30.6 °F 16.9 °F 1008.4 in NE 20.4 mph 20.4 mph 44 % 0.0 in 795.0 W/m2 CLR
16:24 30.5 °F 17.2 °F 1008.4 in NE 9.3 mph 9.3 mph 45 % 0.0 in 773.0 W/m2 CLR
16:29 30.7 °F 17.1 °F 1008.4 in NNE 18.5 mph 18.5 mph 44 % 0.0 in 768.0 W/m2 CLR
16:34 30.8 °F 17.2 °F 1008.4 in NNW 18.5 mph 18.5 mph 44 % 0.0 in 754.0 W/m2 CLR
16:39 30.9 °F 16.8 °F 1008.4 in Calm     43 % 0.0 in 742.0 W/m2 CLR
16:44 31.1 °F 17.0 °F 1008.4 in North 14.8 mph 14.8 mph 43 % 0.0 in 735.0 W/m2 CLR
16:49 31.2 °F 17.5 °F 1008.4 in NE 9.7 mph 9.7 mph 44 % 0.0 in 721.0 W/m2 CLR
16:54 31.3 °F 17.6 °F 1008.4 in NNW 9.3 mph 9.3 mph 44 % 0.0 in 701.0 W/m2 CLR
16:59 31.1 °F 17.4 °F 1008.0 in North 11.1 mph 11.1 mph 44 % 0.0 in 707.0 W/m2 CLR
17:04 31.4 °F 17.7 °F 1008.0 in ENE 9.3 mph 9.3 mph 44 % 0.0 in 693.0 W/m2 CLR
17:09 31.6 °F 17.5 °F 1008.0 in North 17.7 mph 17.7 mph 43 % 0.0 in 682.0 W/m2 CLR
17:14 31.5 °F 17.4 °F 1008.0 in NW 11.3 mph 11.3 mph 43 % 0.0 in 687.0 W/m2 CLR
17:19 31.7 °F 17.6 °F 1008.0 in NNW 1.9 mph 1.9 mph 43 % 0.0 in 700.0 W/m2 CLR
17:24 31.9 °F 17.4 °F 1008.0 in North 24.1 mph 24.1 mph 42 % 0.0 in 673.0 W/m2 CLR
17:29 31.6 °F 17.4 °F 1008.0 in NW 16.7 mph 16.7 mph 43 % 0.0 in 624.0 W/m2 CLR
17:34 31.4 °F 16.9 °F 1008.0 in NE 11.3 mph 11.3 mph 42 % 0.0 in 621.0 W/m2 CLR
17:39 31.4 °F 17.3 °F 1008.0 in North 11.1 mph 11.1 mph 43 % 0.0 in 606.0 W/m2 CLR
17:44 31.4 °F 16.9 °F 1008.0 in NNW 20.4 mph 20.4 mph 42 % 0.0 in 585.0 W/m2 CLR
17:49 31.2 °F 16.8 °F 1008.0 in NNW 20.4 mph 20.4 mph 42 % 0.0 in 570.0 W/m2 CLR
17:54 31.1 °F 16.3 °F 1008.0 in NW 9.3 mph 9.3 mph 41 % 0.0 in 561.0 W/m2 CLR
17:59 31.2 °F 16.4 °F 1008.0 in NNW 16.7 mph 16.7 mph 41 % 0.0 in 552.0 W/m2 CLR
18:04 31.2 °F 16.7 °F 1008.0 in NNE 13.0 mph 13.0 mph 42 % 0.0 in 545.0 W/m2 CLR
18:09 31.1 °F 17.1 °F 1007.7 in NNE 7.4 mph 7.4 mph 43 % 0.0 in 306.0 W/m2 CLR
18:14 30.8 °F 16.8 °F 1008.0 in NNW 11.1 mph 11.1 mph 43 % 0.0 in 234.0 W/m2 CLR
18:19 31.0 °F 16.9 °F 1008.0 in NNE 9.3 mph 9.3 mph 43 % 0.0 in 570.0 W/m2 CLR
18:24 31.0 °F 17.3 °F 1007.7 in North 14.8 mph 14.8 mph 44 % 0.0 in 541.0 W/m2 CLR
18:29 31.2 °F 17.2 °F 1007.7 in North 25.9 mph 25.9 mph 43 % 0.0 in 461.0 W/m2 CLR
18:34 31.1 °F 17.1 °F 1007.7 in NNE 13.0 mph 13.0 mph 43 % 0.0 in 446.0 W/m2 CLR
18:39 31.1 °F 17.4 °F 1007.7 in North 20.4 mph 20.4 mph 44 % 0.0 in 434.0 W/m2 CLR
18:44 30.8 °F 16.8 °F 1007.7 in North 7.4 mph 7.4 mph 43 % 0.0 in 413.0 W/m2 CLR
18:49 30.8 °F 16.8 °F 1007.7 in NNE 22.5 mph 22.5 mph 43 % 0.0 in 373.0 W/m2 CLR
18:54 30.7 °F 16.7 °F 1007.7 in NNE 20.4 mph 20.4 mph 43 % 0.0 in 408.0 W/m2 CLR
18:59 30.6 °F 16.6 °F 1007.7 in NNE 18.5 mph 18.5 mph 43 % 0.0 in 376.0 W/m2 CLR
19:04 30.8 °F 16.8 °F 1007.7 in North 16.1 mph 16.1 mph 43 % 0.0 in 352.0 W/m2 CLR
19:09 30.8 °F 16.8 °F 1007.7 in North 16.1 mph 16.1 mph 43 % 0.0 in 339.0 W/m2 CLR
19:14 30.6 °F 16.6 °F 1008.0 in North 22.5 mph 22.5 mph 43 % 0.0 in 316.0 W/m2 CLR
19:19 30.4 °F 16.8 °F 1008.0 in North 18.5 mph 18.5 mph 44 % 0.0 in 302.0 W/m2 CLR
19:24 30.4 °F 16.8 °F 1008.0 in North 20.4 mph 20.4 mph 44 % 0.0 in 283.0 W/m2 CLR
19:25 30.4 °F 16.8 °F 1008.0 in NNE 20.4 mph 20.4 mph 44 % 0.0 in 283.0 W/m2 CLR
19:30 30.3 °F 16.7 °F 1008.0 in North 16.7 mph 16.7 mph 44 % 0.0 in 265.0 W/m2 CLR
19:35 30.2 °F 16.6 °F 1008.0 in North 18.5 mph 18.5 mph 44 % 0.0 in 250.0 W/m2 CLR
19:36 30.2 °F 16.6 °F 1008.0 in North 18.5 mph 18.5 mph 44 % 0.0 in 246.0 W/m2 CLR
19:41 30.1 °F 16.5 °F 1008.0 in North 5.6 mph 5.6 mph 44 % 0.0 in 236.0 W/m2 CLR
19:46 30.2 °F 16.6 °F 1008.4 in North 16.7 mph 16.7 mph 44 % 0.0 in 221.0 W/m2 CLR
19:51 30.1 °F 16.4 °F 1008.4 in North 18.5 mph 18.5 mph 44 % 0.0 in 207.0 W/m2 CLR
19:56 30.0 °F 16.4 °F 1008.4 in NNW 14.8 mph 14.8 mph 44 % 0.0 in 186.0 W/m2 CLR
20:01 30.0 °F 16.1 °F 1008.4 in NNW 11.1 mph 11.1 mph 43 % 0.0 in 172.0 W/m2 CLR
20:06 29.8 °F 16.3 °F 1008.4 in NNW 18.5 mph 18.5 mph 44 % 0.0 in 158.0 W/m2 CLR
20:11 29.6 °F 16.1 °F 1008.4 in North 18.5 mph 18.5 mph 44 % 0.0 in 144.0 W/m2 CLR
20:16 29.6 °F 16.0 °F 1008.4 in North 11.1 mph 11.1 mph 44 % 0.0 in 127.0 W/m2 CLR
20:21 29.5 °F 15.9 °F 1008.4 in NNW 9.3 mph 9.3 mph 44 % 0.0 in 113.0 W/m2 CLR
20:26 29.3 °F 15.8 °F 1008.4 in NNW 9.3 mph 9.3 mph 44 % 0.0 in 104.0 W/m2 CLR
20:31 29.3 °F 15.8 °F 1008.4 in NNW 13.0 mph 13.0 mph 44 % 0.0 in 93.0 W/m2 CLR
20:36 29.3 °F 16.1 °F 1008.7 in NNW 9.7 mph 9.7 mph 45 % 0.0 in 81.0 W/m2 FEW
20:41 29.1 °F 15.9 °F 1008.7 in North 11.1 mph 11.1 mph 45 % 0.0 in 69.0 W/m2 FEW
20:46 29.1 °F 16.3 °F 1008.7 in North 9.7 mph 9.7 mph 46 % 0.0 in 42.0 W/m2 SCT
20:51 28.9 °F 16.2 °F 1008.7 in North 8.0 mph 8.0 mph 46 % 0.0 in 46.0 W/m2 BKN
20:56 28.8 °F 16.3 °F 1008.7 in North 7.4 mph 7.4 mph 47 % 0.0 in 40.0 W/m2 BKN
21:01 28.7 °F 16.2 °F 1008.7 in Calm     47 % 0.0 in 30.0 W/m2 BKN
21:07 28.6 °F 16.2 °F 1008.7 in North 7.4 mph 7.4 mph 47 % 0.0 in 25.0 W/m2 BKN
21:11 28.4 °F 16.3 °F 1008.7 in Calm   1.3 mph 48 % 0.0 in 19.0 W/m2 BKN
21:17 28.2 °F 16.1 °F 1008.7 in Calm     48 % 0.0 in 16.0 W/m2 BKN
21:22 28.0 °F 16.3 °F 1008.7 in Calm     49 % 0.0 in 12.0 W/m2 BKN
21:27 27.8 °F 16.4 °F 1008.7 in Calm     50 % 0.0 in 9.0 W/m2 BKN
21:32 27.6 °F 16.2 °F 1008.7 in Calm     50 % 0.0 in 5.0 W/m2 OVC
21:37 27.4 °F 16.4 °F 1008.7 in Calm     51 % 0.0 in 0.0 W/m2 OVC
21:42 27.3 °F 16.3 °F 1008.7 in Calm     51 % 0.0 in 0.0 W/m2 OVC
21:47 27.2 °F 16.4 °F 1008.7 in Calm     52 % 0.0 in 0.0 W/m2 CLR
21:52 27.0 °F 16.3 °F 1008.7 in Calm     52 % 0.0 in 0.0 W/m2 CLR
21:57 26.9 °F 16.2 °F 1009.0 in Calm     52 % 0.0 in 0.0 W/m2 CLR
22:02 26.8 °F 16.4 °F 1009.0 in Calm     53 % 0.0 in 0.0 W/m2 CLR
22:07 26.7 °F 16.7 °F 1009.0 in Calm     54 % 0.0 in 0.0 W/m2 CLR
22:12 26.6 °F 16.8 °F 1009.0 in Calm     55 % 0.0 in 0.0 W/m2 CLR
22:17 26.4 °F 16.7 °F 1009.4 in Calm     55 % 0.0 in 0.0 W/m2 CLR
22:22 26.3 °F 16.8 °F 1009.4 in Calm     56 % 0.0 in 0.0 W/m2 CLR
22:27 26.2 °F 17.0 °F 1009.4 in Calm     57 % 0.0 in 0.0 W/m2 CLR
22:32 26.0 °F 17.1 °F 1009.4 in Calm     58 % 0.0 in 0.0 W/m2 CLR
22:37 25.9 °F 17.3 °F 1009.4 in Calm     59 % 0.0 in 0.0 W/m2 CLR
22:42 25.6 °F 17.0 °F 1009.4 in Calm     59 % 0.0 in 0.0 W/m2 CLR
22:47 25.4 °F 17.1 °F 1009.4 in Calm     60 % 0.0 in 0.0 W/m2 CLR
22:52 25.3 °F 17.0 °F 1009.7 in Calm     60 % 0.0 in 0.0 W/m2 CLR
22:53 25.3 °F 17.3 °F 1009.7 in Calm     61 % 0.0 in 0.0 W/m2 CLR
22:58 25.2 °F 17.4 °F 1009.7 in Calm     62 % 0.0 in 0.0 W/m2 CLR
23:03 24.9 °F 17.2 °F 1009.7 in Calm     62 % 0.0 in 0.0 W/m2 CLR
23:08 24.7 °F 17.2 °F 1009.7 in Calm     63 % 0.0 in 0.0 W/m2 CLR
23:13 24.6 °F 17.1 °F 1009.7 in Calm     63 % 0.0 in 0.0 W/m2 CLR
23:18 24.4 °F 17.4 °F 1009.7 in Calm     65 % 0.0 in 0.0 W/m2 CLR
23:23 24.3 °F 17.3 °F 1009.7 in Calm     65 % 0.0 in 0.0 W/m2 CLR
23:28 24.1 °F 17.3 °F 1009.7 in Calm     66 % 0.0 in 0.0 W/m2 CLR
23:33 24.0 °F 17.5 °F 1009.7 in Calm     67 % 0.0 in 0.0 W/m2 CLR
23:38 23.8 °F 17.6 °F 1009.7 in Calm     68 % 0.0 in 0.0 W/m2 CLR
23:43 23.6 °F 17.3 °F 1009.7 in Calm     68 % 0.0 in 0.0 W/m2 CLR
23:48 23.5 °F 17.5 °F 1009.7 in Calm     69 % 0.0 in 0.0 W/m2 CLR
23:53 23.3 °F 17.3 °F 1009.7 in Calm     69 % 0.0 in 0.0 W/m2 CLR
23:55 23.3 °F 17.5 °F 1009.7 in Calm     70 % 0.0 in 0.0 W/m2 CLR
Lo Temps de Massalio
Compliments of Weather Underground - 1.25 mb